createdAt,value
2023-03-26T00:03:10.748Z,1.50
2023-03-26T00:08:14.273Z,1.40
2023-03-26T00:13:19.029Z,1.47
2023-03-26T00:18:24.981Z,1.30
2023-03-26T00:23:29.641Z,1.50
2023-03-26T00:28:35.237Z,1.57
2023-03-26T00:33:38.779Z,1.53
2023-03-26T00:38:43.243Z,1.60
2023-03-26T00:43:48.705Z,1.60
2023-03-26T00:48:52.103Z,1.43
2023-03-26T00:53:55.969Z,1.70
2023-03-26T00:59:01.472Z,1.83
2023-03-26T01:04:30.976Z,1.70
2023-03-26T01:09:37.991Z,1.53
2023-03-26T01:14:43.537Z,1.50
2023-03-26T01:19:52.835Z,1.30
2023-03-26T01:24:57.607Z,1.20
2023-03-26T01:30:08.347Z,1.43
2023-03-26T01:35:23.133Z,1.53
2023-03-26T01:40:42.912Z,1.43
2023-03-26T01:45:48.997Z,1.87
2023-03-26T01:50:56.438Z,1.60
2023-03-26T01:56:13.439Z,1.60
2023-03-26T02:01:27.359Z,1.80
2023-03-26T02:06:40.877Z,1.70
2023-03-26T02:11:47.897Z,1.33
2023-03-26T02:16:51.631Z,1.50
2023-03-26T02:21:59.916Z,1.30
2023-03-26T02:27:04.846Z,1.37
2023-03-26T02:32:13.681Z,1.20
2023-03-26T02:37:19.212Z,1.37
2023-03-26T02:42:24.030Z,1.00
2023-03-26T02:47:27.410Z,0.87
2023-03-26T02:52:31.041Z,1.30
2023-03-26T02:57:35.880Z,1.30
2023-03-26T03:02:39.933Z,1.27
2023-03-26T03:07:43.377Z,1.27
2023-03-26T03:12:48.159Z,1.20
2023-03-26T03:17:51.658Z,1.17
2023-03-26T03:22:54.995Z,0.93
2023-03-26T03:28:00.118Z,1.23
2023-03-26T03:33:03.633Z,1.30
2023-03-26T03:38:07.154Z,1.60
2023-03-26T03:43:11.878Z,2.00
2023-03-26T03:48:15.214Z,1.50
2023-03-26T03:53:19.555Z,1.77
2023-03-26T03:58:28.381Z,1.63
2023-03-26T04:03:33.430Z,1.13
2023-03-26T04:08:37.925Z,1.40
2023-03-26T04:13:42.810Z,1.40
2023-03-26T04:18:46.591Z,1.10
2023-03-26T04:23:50.120Z,1.10
2023-03-26T04:28:57.335Z,1.50
2023-03-26T04:34:07.269Z,1.30
2023-03-26T04:39:13.336Z,1.27
2023-03-26T04:44:22.492Z,1.30
2023-03-26T04:49:25.965Z,1.30
2023-03-26T04:54:29.318Z,1.50
2023-03-26T04:59:35.751Z,1.50
2023-03-26T05:04:40.839Z,1.60
2023-03-26T05:09:44.508Z,1.57
2023-03-26T05:14:49.349Z,1.70
2023-03-26T05:19:52.878Z,1.87
2023-03-26T05:24:56.417Z,1.97
2023-03-26T05:30:03.829Z,2.00
2023-03-26T05:35:08.215Z,1.57
2023-03-26T05:40:14.144Z,2.90
2023-03-26T05:45:18.975Z,3.27
2023-03-26T05:50:22.694Z,2.47
2023-03-26T05:55:25.945Z,2.37
2023-03-26T06:00:30.653Z,2.83
2023-03-26T06:05:37.407Z,2.93
2023-03-26T06:10:40.942Z,2.90
2023-03-26T06:15:45.734Z,2.57
2023-03-26T06:20:49.068Z,1.97
2023-03-26T06:25:52.424Z,2.20
2023-03-26T06:31:01.226Z,2.80
2023-03-26T06:36:04.909Z,2.27
2023-03-26T06:41:08.834Z,1.97
2023-03-26T06:46:14.151Z,2.07
2023-03-26T06:51:17.434Z,2.27
2023-03-26T06:56:20.834Z,2.53
2023-03-26T07:01:25.570Z,2.30
2023-03-26T07:06:29.012Z,2.60
2023-03-26T07:11:32.425Z,1.80
2023-03-26T07:16:37.282Z,1.70
2023-03-26T07:21:41.276Z,1.80
2023-03-26T07:26:52.041Z,1.53
2023-03-26T07:32:04.597Z,1.30
2023-03-26T07:37:17.639Z,1.70
2023-03-26T07:42:32.857Z,1.67
2023-03-26T07:47:39.026Z,1.20
2023-03-26T07:52:42.905Z,1.37
2023-03-26T07:57:56.389Z,1.40
2023-03-26T08:03:32.813Z,1.30
2023-03-26T08:08:45.916Z,1.10
2023-03-26T08:14:01.422Z,1.17
2023-03-26T08:19:30.984Z,1.33
2023-03-26T08:24:41.585Z,1.30
2023-03-26T08:29:54.474Z,1.10
2023-03-26T08:35:04.128Z,1.20
2023-03-26T08:40:09.732Z,1.07
2023-03-26T08:45:35.834Z,1.30
2023-03-26T08:51:10.926Z,1.40
2023-03-26T08:56:21.843Z,1.20
2023-03-26T09:02:07.125Z,1.20
2023-03-26T09:07:47.364Z,1.27
2023-03-26T09:13:29.946Z,1.40
2023-03-26T09:19:25.327Z,1.20
2023-03-26T09:24:57.261Z,1.30
2023-03-26T09:30:42.040Z,1.10
2023-03-26T09:36:02.107Z,0.90
2023-03-26T09:41:15.095Z,0.87
2023-03-26T09:46:30.476Z,1.03
2023-03-26T09:51:56.993Z,1.20
2023-03-26T09:57:07.714Z,1.20
2023-03-26T10:02:23.626Z,1.33
2023-03-26T10:08:03.461Z,1.67
2023-03-26T10:13:15.765Z,1.00
2023-03-26T10:18:27.459Z,2.57
2023-03-26T10:23:54.611Z,1.10
2023-03-26T10:29:27.604Z,1.00
2023-03-26T10:34:52.107Z,1.03
2023-03-26T10:40:28.453Z,0.93
2023-03-26T10:45:51.547Z,1.00
2023-03-26T10:51:08.469Z,0.80
2023-03-26T10:56:23.357Z,1.10
2023-03-26T11:01:37.287Z,1.17
2023-03-26T11:06:49.150Z,1.10
2023-03-26T11:12:01.434Z,0.90
2023-03-26T11:17:39.198Z,0.80
2023-03-26T11:22:51.736Z,1.10
2023-03-26T11:28:10.528Z,1.23
2023-03-26T11:33:20.519Z,2.73
2023-03-26T11:38:28.019Z,1.50
2023-03-26T11:43:37.000Z,1.07
2023-03-26T11:48:44.413Z,1.30
2023-03-26T11:53:48.342Z,1.50
2023-03-26T11:58:58.356Z,1.40
2023-03-26T12:04:08.167Z,1.70
2023-03-26T12:09:19.312Z,1.30
2023-03-26T12:14:26.793Z,1.00
2023-03-26T12:19:39.674Z,1.20
2023-03-26T12:24:44.865Z,1.27
2023-03-26T12:29:55.151Z,1.10
2023-03-26T12:34:59.077Z,1.30
2023-03-26T12:40:16.087Z,1.33
2023-03-26T12:45:25.090Z,1.57
2023-03-26T12:50:35.577Z,1.17
2023-03-26T12:55:49.505Z,1.40
2023-03-26T13:01:02.771Z,0.80
2023-03-26T13:06:59.559Z,1.20
2023-03-26T13:12:17.463Z,1.57
2023-03-26T13:17:31.294Z,1.40
2023-03-26T13:22:43.933Z,1.50
2023-03-26T13:28:00.940Z,1.20
2023-03-26T13:33:27.540Z,1.40
2023-03-26T13:38:43.226Z,1.30
2023-03-26T13:44:11.469Z,1.00
2023-03-26T13:49:18.354Z,0.87
2023-03-26T13:54:30.066Z,1.20
2023-03-26T13:59:39.603Z,1.07
2023-03-26T14:04:47.576Z,0.90
2023-03-26T14:09:58.393Z,1.03
2023-03-26T14:15:04.977Z,1.07
2023-03-26T14:20:45.672Z,1.10
2023-03-26T14:26:05.884Z,1.10
2023-03-26T14:31:21.529Z,0.60
2023-03-26T14:36:42.476Z,0.80
2023-03-26T14:41:54.847Z,0.70
2023-03-26T14:47:16.832Z,0.83
2023-03-26T14:52:25.176Z,0.70
2023-03-26T14:58:02.486Z,1.23
2023-03-26T15:03:49.015Z,1.40
2023-03-26T15:09:43.115Z,1.20
2023-03-26T15:15:20.367Z,0.70
2023-03-26T15:21:05.918Z,1.00
2023-03-26T15:26:46.621Z,1.13
2023-03-26T15:32:30.362Z,1.20
2023-03-26T15:38:20.993Z,0.90
2023-03-26T15:43:27.388Z,4.97
2023-03-26T15:48:47.489Z,1.50
2023-03-26T15:53:57.461Z,1.10
2023-03-26T15:59:09.184Z,1.10
2023-03-26T16:04:29.357Z,0.90
2023-03-26T16:09:52.673Z,1.10
2023-03-26T16:15:24.545Z,1.00
2023-03-26T16:20:32.947Z,0.90
2023-03-26T16:25:54.394Z,1.10
2023-03-26T16:31:36.943Z,0.70
2023-03-26T16:36:50.384Z,0.90
2023-03-26T16:42:06.475Z,0.90
2023-03-26T16:47:22.884Z,0.80
2023-03-26T16:52:45.365Z,1.10
2023-03-26T16:57:57.786Z,1.00
2023-03-26T17:03:28.531Z,0.90
2023-03-26T17:08:43.211Z,0.80
2023-03-26T17:13:53.657Z,0.90
2023-03-26T17:19:05.765Z,0.87
2023-03-26T17:24:18.570Z,0.30
2023-03-26T17:29:29.990Z,0.87
2023-03-26T17:35:01.184Z,0.60
2023-03-26T17:40:52.071Z,0.77
2023-03-26T17:46:03.956Z,1.10
2023-03-26T17:51:25.697Z,1.00
2023-03-26T17:56:34.745Z,1.60
2023-03-26T18:01:41.903Z,1.33
2023-03-26T18:06:58.528Z,1.50
2023-03-26T18:12:37.701Z,1.70
2023-03-26T18:17:45.632Z,0.97
2023-03-26T18:22:54.428Z,1.20
2023-03-26T18:28:02.604Z,1.90
2023-03-26T18:33:15.914Z,2.57
2023-03-26T18:38:35.505Z,2.40
2023-03-26T18:43:45.534Z,0.60
2023-03-26T18:48:50.673Z,1.10
2023-03-26T18:54:00.323Z,1.00
2023-03-26T18:59:10.966Z,0.70
2023-03-26T19:04:17.768Z,0.47
2023-03-26T19:09:31.604Z,0.47
2023-03-26T19:14:55.229Z,0.40
2023-03-26T19:20:01.207Z,0.20
2023-03-26T19:25:07.775Z,0.20
2023-03-26T19:30:34.989Z,0.20
2023-03-26T19:35:41.202Z,0.30
2023-03-26T19:40:47.349Z,0.20
2023-03-26T19:46:00.416Z,0.13
2023-03-26T19:51:07.590Z,0.20
2023-03-26T19:56:19.375Z,0.27
2023-03-26T20:01:27.101Z,0.90
2023-03-26T20:06:43.346Z,0.90
2023-03-26T20:11:49.083Z,0.40
2023-03-26T20:16:55.402Z,0.50
2023-03-26T20:22:07.328Z,0.70
2023-03-26T20:27:14.607Z,1.10
2023-03-26T20:32:27.135Z,0.77
2023-03-26T20:37:30.948Z,0.67
2023-03-26T20:42:36.101Z,0.90
2023-03-26T20:47:41.290Z,0.63
2023-03-26T20:52:45.955Z,0.50
2023-03-26T20:57:51.213Z,0.77
2023-03-26T21:02:58.116Z,0.53
2023-03-26T21:08:05.194Z,0.90
2023-03-26T21:13:12.992Z,0.80
2023-03-26T21:18:18.591Z,1.10
2023-03-26T21:23:30.302Z,1.30
2023-03-26T21:28:42.336Z,0.83
2023-03-26T21:33:48.139Z,0.90
2023-03-26T21:38:54.775Z,1.20
2023-03-26T21:43:58.119Z,1.17
2023-03-26T21:49:03.628Z,0.83
2023-03-26T21:54:16.349Z,0.93
2023-03-26T21:59:28.343Z,1.13
2023-03-26T22:04:40.444Z,1.00
2023-03-26T22:09:45.061Z,1.07
2023-03-26T22:14:48.344Z,1.10
2023-03-26T22:19:52.996Z,1.00
2023-03-26T22:24:56.641Z,1.13
2023-03-26T22:30:00.664Z,1.00
2023-03-26T22:35:06.061Z,0.97
2023-03-26T22:40:10.478Z,0.80
2023-03-26T22:45:14.042Z,0.90
2023-03-26T22:50:18.847Z,0.90
2023-03-26T22:55:28.387Z,1.23
2023-03-26T23:00:34.941Z,1.10
2023-03-26T23:05:39.677Z,1.20
2023-03-26T23:10:44.098Z,1.30
2023-03-26T23:15:50.125Z,1.87
2023-03-26T23:20:57.934Z,1.50
2023-03-26T23:26:03.588Z,1.60
2023-03-26T23:31:09.175Z,1.60
2023-03-26T23:36:15.061Z,1.50
2023-03-26T23:41:19.837Z,1.60
2023-03-26T23:46:25.011Z,1.90
2023-03-26T23:51:30.749Z,1.70
2023-03-26T23:56:34.129Z,2.00
